Terminal Aerodrome Forecast
Issued by NWS Charleston, WV

Current Version | Previous Version | Text Only | Print | Product List | Glossary Off
Versions: 1 2 3 4 5 6 7 8 9 10 11 12 13 14 15 16 17 18 19 20 21 22 23 24

000
FTUS41 KRLX 030500 RRA
TAFPKB
TAF
KPKB 030543Z 0306/0406 08004KT P6SM BKN250
     FM031400 10005KT P6SM -FZRA OVC060
     FM031500 13005KT P6SM -RA OVC035
     FM031800 17009KT P6SM OVC025
     FM032200 18010KT 5SM -RA OVC020
     FM040300 22008KT 1SM -RA BR SCT001 OVC015=

USA.gov is the U.S. government's official web portal to all federal, state and local government web resources and services.